createdAt,value
2019-06-20T00:14:23.554Z,5.4
2019-06-20T00:29:38.006Z,5.3
2019-06-20T00:44:19.795Z,5.5
2019-06-20T01:00:17.270Z,4.8
2019-06-20T01:14:54.273Z,4.8
2019-06-20T01:29:59.340Z,5.4
2019-06-20T01:44:53.647Z,5.1
2019-06-20T01:59:32.024Z,5.5
2019-06-20T02:15:10.752Z,7
2019-06-20T02:29:59.501Z,9.8
2019-06-20T02:44:31.573Z,11.1
2019-06-20T03:00:22.145Z,12.9
2019-06-20T03:15:11.965Z,17.2
2019-06-20T03:30:01.788Z,19.3
2019-06-20T03:45:02.099Z,20.8
2019-06-20T03:45:02.440Z,20.8
2019-06-20T03:59:54.706Z,20.7
2019-06-20T04:14:40.635Z,20.6
2019-06-20T04:30:27.751Z,20.5
2019-06-20T04:44:31.817Z,22.4
2019-06-20T04:59:42.590Z,26
2019-06-20T05:14:42.864Z,30.4
2019-06-20T05:29:32.986Z,31.3
2019-06-20T05:45:20.853Z,30.3
2019-06-20T05:59:40.962Z,28.6
2019-06-20T06:12:12.030Z,28.6
2019-06-20T06:15:01.108Z,27.1
2019-06-20T06:30:22.737Z,25.2
2019-06-20T06:44:34.567Z,25.6
2019-06-20T07:00:01.038Z,26.1
2019-06-20T07:15:20.572Z,22.8
2019-06-20T07:29:38.809Z,22.5
2019-06-20T07:45:01.673Z,18.8
2019-06-20T08:00:08.099Z,15.8
2019-06-20T08:14:41.651Z,12.9
2019-06-20T08:30:28.942Z,11.6
2019-06-20T08:45:13.868Z,9.6
2019-06-20T09:00:21.599Z,10
2019-06-20T09:15:35.596Z,7.5
2019-06-20T09:29:43.087Z,9.1
2019-06-20T09:45:06.841Z,9
2019-06-20T10:00:31.867Z,7.9
2019-06-20T10:14:53.564Z,6.6
2019-06-20T10:30:23.701Z,6.3
2019-06-20T10:44:56.238Z,6.1
2019-06-20T11:00:31.183Z,5.4
2019-06-20T11:15:00.268Z,5
2019-06-20T11:30:58.042Z,5.3
2019-06-20T11:30:59.899Z,5.3
2019-06-20T11:31:00.595Z,5.3
2019-06-20T11:45:09.080Z,6
2019-06-20T12:00:34.226Z,6.9
2019-06-20T12:15:07.701Z,6.6
2019-06-20T12:30:38.437Z,7
2019-06-20T12:45:33.471Z,7.9
2019-06-20T13:00:08.602Z,9.3
2019-06-20T13:15:37.656Z,9.4
2019-06-20T13:30:34.760Z,9.5
2019-06-20T13:46:06.812Z,8.8
2019-06-20T14:00:48.600Z,8.5
2019-06-20T14:15:22.930Z,7.3
2019-06-20T14:30:50.399Z,7.2
2019-06-20T14:45:22.135Z,6.2
2019-06-20T15:01:05.221Z,4.2
2019-06-20T15:15:21.580Z,5.1
2019-06-20T15:30:43.485Z,7.8
2019-06-20T15:45:16.236Z,6.3
2019-06-20T16:00:31.423Z,6.9
2019-06-20T16:15:47.607Z,4.6
2019-06-20T16:31:25.537Z,5.5
2019-06-20T16:31:26.281Z,5.5
2019-06-20T16:31:26.871Z,5.5
2019-06-20T16:45:52.086Z,4.3
2019-06-20T17:00:16.622Z,3.8
2019-06-20T17:16:02.064Z,5.2
2019-06-20T17:30:25.452Z,4.6
2019-06-20T17:46:12.749Z,4.1
2019-06-20T18:00:43.264Z,4.4
2019-06-20T18:16:03.705Z,5.4
2019-06-20T18:30:28.739Z,5.1
2019-06-20T18:45:49.487Z,5.9
2019-06-20T19:01:11.733Z,5.8
2019-06-20T19:15:41.336Z,5.9
2019-06-20T19:31:00.953Z,5.9
2019-06-20T19:45:21.509Z,5
2019-06-20T20:00:42.005Z,6.7
2019-06-20T20:16:15.043Z,7
2019-06-20T20:31:23.210Z,7.1
2019-06-20T20:45:34.334Z,9.2
2019-06-20T21:01:06.842Z,10.4
2019-06-20T21:15:39.326Z,12.1
2019-06-20T21:30:55.053Z,14.2
2019-06-20T21:45:51.969Z,13
2019-06-20T22:01:12.259Z,14.7
2019-06-20T22:16:27.950Z,19.3
2019-06-20T22:30:40.630Z,17.2
2019-06-20T22:46:06.029Z,19.1
2019-06-20T23:01:22.574Z,17.5
2019-06-20T23:15:54.350Z,17.6
2019-06-20T23:31:13.464Z,19.4
2019-06-20T23:45:46.950Z,19.5
